sensor_id;sensor_type;location;lat;lon;timestamp;temperature;humidity
12700;DHT22;6414;49.570;6.060;2024-02-26T00:00:16;5.20;99.90
12700;DHT22;6414;49.570;6.060;2024-02-26T00:03:02;5.20;99.90
12700;DHT22;6414;49.570;6.060;2024-02-26T00:05:48;5.20;99.90
12700;DHT22;6414;49.570;6.060;2024-02-26T00:08:33;5.20;99.90
12700;DHT22;6414;49.570;6.060;2024-02-26T00:11:19;5.10;99.90
12700;DHT22;6414;49.570;6.060;2024-02-26T00:14:05;5.10;99.90
12700;DHT22;6414;49.570;6.060;2024-02-26T00:16:51;5.00;99.90
12700;DHT22;6414;49.570;6.060;2024-02-26T00:19:37;5.00;99.90
12700;DHT22;6414;49.570;6.060;2024-02-26T00:22:24;5.00;99.90
12700;DHT22;6414;49.570;6.060;2024-02-26T00:25:10;4.90;99.90
12700;DHT22;6414;49.570;6.060;2024-02-26T00:27:56;4.90;99.90
12700;DHT22;6414;49.570;6.060;2024-02-26T00:30:43;4.90;99.90
12700;DHT22;6414;49.570;6.060;2024-02-26T00:33:29;4.90;99.90
12700;DHT22;6414;49.570;6.060;2024-02-26T00:36:15;4.90;99.90
12700;DHT22;6414;49.570;6.060;2024-02-26T00:39:01;4.90;99.90
12700;DHT22;6414;49.570;6.060;2024-02-26T00:41:46;4.90;99.90
12700;DHT22;6414;49.570;6.060;2024-02-26T00:44:32;4.90;99.90
12700;DHT22;6414;49.570;6.060;2024-02-26T00:47:17;4.90;99.90
12700;DHT22;6414;49.570;6.060;2024-02-26T00:50:03;4.90;99.90
12700;DHT22;6414;49.570;6.060;2024-02-26T00:52:49;4.90;99.90
12700;DHT22;6414;49.570;6.060;2024-02-26T00:55:35;4.80;99.90
12700;DHT22;6414;49.570;6.060;2024-02-26T00:58:21;4.80;99.90
12700;DHT22;6414;49.570;6.060;2024-02-26T01:01:07;4.80;99.90
12700;DHT22;6414;49.570;6.060;2024-02-26T01:03:52;4.80;99.90
12700;DHT22;6414;49.570;6.060;2024-02-26T01:06:38;4.80;99.90
12700;DHT22;6414;49.570;6.060;2024-02-26T01:09:24;4.80;99.90
12700;DHT22;6414;49.570;6.060;2024-02-26T01:12:09;4.80;99.90
12700;DHT22;6414;49.570;6.060;2024-02-26T01:14:55;4.80;99.90
12700;DHT22;6414;49.570;6.060;2024-02-26T01:17:41;4.80;99.90
12700;DHT22;6414;49.570;6.060;2024-02-26T01:20:26;4.70;99.90
12700;DHT22;6414;49.570;6.060;2024-02-26T01:23:12;4.60;99.90
12700;DHT22;6414;49.570;6.060;2024-02-26T01:25:58;4.70;99.90
12700;DHT22;6414;49.570;6.060;2024-02-26T01:31:11;4.40;99.90
12700;DHT22;6414;49.570;6.060;2024-02-26T01:33:58;4.30;99.90
12700;DHT22;6414;49.570;6.060;2024-02-26T01:36:43;4.30;99.90
12700;DHT22;6414;49.570;6.060;2024-02-26T01:39:29;4.30;99.90
12700;DHT22;6414;49.570;6.060;2024-02-26T01:42:16;4.30;99.90
12700;DHT22;6414;49.570;6.060;2024-02-26T01:45:01;4.30;99.90
12700;DHT22;6414;49.570;6.060;2024-02-26T01:47:51;4.30;99.90
12700;DHT22;6414;49.570;6.060;2024-02-26T01:50:37;4.40;99.90
12700;DHT22;6414;49.570;6.060;2024-02-26T01:53:24;4.40;99.90
12700;DHT22;6414;49.570;6.060;2024-02-26T01:56:11;4.40;99.90
12700;DHT22;6414;49.570;6.060;2024-02-26T01:58:59;4.40;99.90
12700;DHT22;6414;49.570;6.060;2024-02-26T02:01:44;4.40;99.90
12700;DHT22;6414;49.570;6.060;2024-02-26T02:04:29;4.40;99.90
12700;DHT22;6414;49.570;6.060;2024-02-26T02:07:16;4.40;99.90
12700;DHT22;6414;49.570;6.060;2024-02-26T02:10:02;4.40;99.90
12700;DHT22;6414;49.570;6.060;2024-02-26T02:12:47;4.40;99.90
12700;DHT22;6414;49.570;6.060;2024-02-26T02:15:33;4.40;99.90
12700;DHT22;6414;49.570;6.060;2024-02-26T02:18:20;4.40;99.90
12700;DHT22;6414;49.570;6.060;2024-02-26T02:21:06;4.40;99.90
12700;DHT22;6414;49.570;6.060;2024-02-26T02:23:52;4.40;99.90
12700;DHT22;6414;49.570;6.060;2024-02-26T02:26:37;4.40;99.90
12700;DHT22;6414;49.570;6.060;2024-02-26T02:29:23;4.40;99.90
12700;DHT22;6414;49.570;6.060;2024-02-26T02:32:10;4.40;99.90
12700;DHT22;6414;49.570;6.060;2024-02-26T02:34:56;4.40;99.90
12700;DHT22;6414;49.570;6.060;2024-02-26T02:37:42;4.40;99.90
12700;DHT22;6414;49.570;6.060;2024-02-26T02:40:28;4.40;99.90
12700;DHT22;6414;49.570;6.060;2024-02-26T02:43:14;4.40;99.90
12700;DHT22;6414;49.570;6.060;2024-02-26T02:46:00;4.40;99.90
12700;DHT22;6414;49.570;6.060;2024-02-26T02:48:46;4.50;99.90
12700;DHT22;6414;49.570;6.060;2024-02-26T02:51:33;4.60;99.90
12700;DHT22;6414;49.570;6.060;2024-02-26T02:54:19;4.60;99.90
12700;DHT22;6414;49.570;6.060;2024-02-26T02:57:05;4.60;99.90
12700;DHT22;6414;49.570;6.060;2024-02-26T02:59:51;4.60;99.90
12700;DHT22;6414;49.570;6.060;2024-02-26T03:02:37;4.70;99.90
12700;DHT22;6414;49.570;6.060;2024-02-26T03:05:24;4.70;99.90
12700;DHT22;6414;49.570;6.060;2024-02-26T03:08:10;4.70;99.90
12700;DHT22;6414;49.570;6.060;2024-02-26T03:10:58;4.80;99.90
12700;DHT22;6414;49.570;6.060;2024-02-26T03:13:42;4.80;99.90
12700;DHT22;6414;49.570;6.060;2024-02-26T03:16:28;4.80;99.90
12700;DHT22;6414;49.570;6.060;2024-02-26T03:19:15;4.80;99.90
12700;DHT22;6414;49.570;6.060;2024-02-26T03:22:01;4.90;99.90
12700;DHT22;6414;49.570;6.060;2024-02-26T03:24:48;4.90;99.90
12700;DHT22;6414;49.570;6.060;2024-02-26T03:27:33;4.90;99.90
12700;DHT22;6414;49.570;6.060;2024-02-26T03:30:20;4.90;99.90
12700;DHT22;6414;49.570;6.060;2024-02-26T03:33:06;4.90;99.90
12700;DHT22;6414;49.570;6.060;2024-02-26T03:35:52;4.90;99.90
12700;DHT22;6414;49.570;6.060;2024-02-26T03:38:38;4.90;99.90
12700;DHT22;6414;49.570;6.060;2024-02-26T03:41:24;5.00;99.90
12700;DHT22;6414;49.570;6.060;2024-02-26T03:44:10;5.00;99.90
12700;DHT22;6414;49.570;6.060;2024-02-26T03:46:56;5.00;99.90
12700;DHT22;6414;49.570;6.060;2024-02-26T03:49:42;5.00;99.90
12700;DHT22;6414;49.570;6.060;2024-02-26T03:52:27;5.00;99.90
12700;DHT22;6414;49.570;6.060;2024-02-26T03:55:13;5.00;99.90
12700;DHT22;6414;49.570;6.060;2024-02-26T03:57:59;5.00;99.90
12700;DHT22;6414;49.570;6.060;2024-02-26T04:00:45;5.10;99.90
12700;DHT22;6414;49.570;6.060;2024-02-26T04:03:32;5.10;99.90
12700;DHT22;6414;49.570;6.060;2024-02-26T04:06:18;5.10;99.90
12700;DHT22;6414;49.570;6.060;2024-02-26T04:09:04;5.10;99.90
12700;DHT22;6414;49.570;6.060;2024-02-26T04:11:50;5.10;99.90
12700;DHT22;6414;49.570;6.060;2024-02-26T04:14:36;5.10;99.90
12700;DHT22;6414;49.570;6.060;2024-02-26T04:17:23;5.20;99.90
12700;DHT22;6414;49.570;6.060;2024-02-26T04:20:13;5.20;99.90
12700;DHT22;6414;49.570;6.060;2024-02-26T04:22:55;5.20;99.90
12700;DHT22;6414;49.570;6.060;2024-02-26T04:25:41;5.30;99.90
12700;DHT22;6414;49.570;6.060;2024-02-26T04:28:29;5.30;99.90
12700;DHT22;6414;49.570;6.060;2024-02-26T04:31:15;5.30;99.90
12700;DHT22;6414;49.570;6.060;2024-02-26T04:34:01;5.30;99.90
12700;DHT22;6414;49.570;6.060;2024-02-26T04:36:47;5.40;99.90
12700;DHT22;6414;49.570;6.060;2024-02-26T04:39:33;5.40;99.90
12700;DHT22;6414;49.570;6.060;2024-02-26T04:42:19;5.40;99.90
12700;DHT22;6414;49.570;6.060;2024-02-26T04:45:05;5.40;99.90
12700;DHT22;6414;49.570;6.060;2024-02-26T04:47:51;5.40;99.90
12700;DHT22;6414;49.570;6.060;2024-02-26T04:50:37;5.40;99.90
12700;DHT22;6414;49.570;6.060;2024-02-26T04:53:23;5.50;99.90
12700;DHT22;6414;49.570;6.060;2024-02-26T04:56:09;5.50;99.90
12700;DHT22;6414;49.570;6.060;2024-02-26T04:58:55;5.40;99.90
12700;DHT22;6414;49.570;6.060;2024-02-26T05:01:42;5.50;99.90
12700;DHT22;6414;49.570;6.060;2024-02-26T05:04:29;5.50;99.90
12700;DHT22;6414;49.570;6.060;2024-02-26T05:07:15;5.50;99.90
12700;DHT22;6414;49.570;6.060;2024-02-26T05:10:01;5.50;99.90
12700;DHT22;6414;49.570;6.060;2024-02-26T05:12:48;5.50;99.90
12700;DHT22;6414;49.570;6.060;2024-02-26T05:15:35;5.50;99.90
12700;DHT22;6414;49.570;6.060;2024-02-26T05:18:22;5.50;99.90
12700;DHT22;6414;49.570;6.060;2024-02-26T05:21:08;5.50;99.90
12700;DHT22;6414;49.570;6.060;2024-02-26T05:23:54;5.50;99.90
12700;DHT22;6414;49.570;6.060;2024-02-26T05:26:40;5.50;99.90
12700;DHT22;6414;49.570;6.060;2024-02-26T05:29:26;5.50;99.90
12700;DHT22;6414;49.570;6.060;2024-02-26T05:32:12;5.60;99.90
12700;DHT22;6414;49.570;6.060;2024-02-26T05:34:58;5.60;99.90
12700;DHT22;6414;49.570;6.060;2024-02-26T05:37:44;5.60;99.90
12700;DHT22;6414;49.570;6.060;2024-02-26T05:40:30;5.60;99.90
12700;DHT22;6414;49.570;6.060;2024-02-26T05:43:16;5.60;99.90
12700;DHT22;6414;49.570;6.060;2024-02-26T05:46:02;5.60;99.90
12700;DHT22;6414;49.570;6.060;2024-02-26T05:48:50;5.60;99.90
12700;DHT22;6414;49.570;6.060;2024-02-26T05:51:34;5.60;99.90
12700;DHT22;6414;49.570;6.060;2024-02-26T05:54:20;5.60;99.90
12700;DHT22;6414;49.570;6.060;2024-02-26T05:57:07;5.60;99.90
12700;DHT22;6414;49.570;6.060;2024-02-26T05:59:53;5.60;99.90
12700;DHT22;6414;49.570;6.060;2024-02-26T06:02:39;5.60;99.90
12700;DHT22;6414;49.570;6.060;2024-02-26T06:05:25;5.60;99.90
12700;DHT22;6414;49.570;6.060;2024-02-26T06:08:11;5.60;99.90
12700;DHT22;6414;49.570;6.060;2024-02-26T06:10:56;5.50;99.90
12700;DHT22;6414;49.570;6.060;2024-02-26T06:13:43;5.60;99.90
12700;DHT22;6414;49.570;6.060;2024-02-26T06:16:29;5.60;99.90
12700;DHT22;6414;49.570;6.060;2024-02-26T06:19:15;5.60;99.90
12700;DHT22;6414;49.570;6.060;2024-02-26T06:22:01;5.60;99.90
12700;DHT22;6414;49.570;6.060;2024-02-26T06:24:47;5.60;99.90
12700;DHT22;6414;49.570;6.060;2024-02-26T06:27:34;5.60;99.90
12700;DHT22;6414;49.570;6.060;2024-02-26T06:30:20;5.70;99.90
12700;DHT22;6414;49.570;6.060;2024-02-26T06:33:07;5.70;99.90
12700;DHT22;6414;49.570;6.060;2024-02-26T06:35:53;5.70;99.90
12700;DHT22;6414;49.570;6.060;2024-02-26T06:38:39;5.70;99.90
12700;DHT22;6414;49.570;6.060;2024-02-26T06:41:25;5.70;99.90
12700;DHT22;6414;49.570;6.060;2024-02-26T06:44:11;5.70;99.90
12700;DHT22;6414;49.570;6.060;2024-02-26T06:47:00;5.70;99.90
12700;DHT22;6414;49.570;6.060;2024-02-26T06:49:42;5.70;99.90
12700;DHT22;6414;49.570;6.060;2024-02-26T06:52:28;5.70;99.90
12700;DHT22;6414;49.570;6.060;2024-02-26T06:55:14;5.70;99.90
12700;DHT22;6414;49.570;6.060;2024-02-26T06:58:01;5.70;99.90
12700;DHT22;6414;49.570;6.060;2024-02-26T07:00:47;5.70;99.90
12700;DHT22;6414;49.570;6.060;2024-02-26T07:03:33;5.80;99.90
12700;DHT22;6414;49.570;6.060;2024-02-26T07:06:19;5.80;99.90
12700;DHT22;6414;49.570;6.060;2024-02-26T07:09:05;5.80;99.90
12700;DHT22;6414;49.570;6.060;2024-02-26T07:11:51;5.80;99.90
12700;DHT22;6414;49.570;6.060;2024-02-26T07:14:37;5.80;99.90
12700;DHT22;6414;49.570;6.060;2024-02-26T07:17:23;5.90;99.90
12700;DHT22;6414;49.570;6.060;2024-02-26T07:20:09;5.90;99.90
12700;DHT22;6414;49.570;6.060;2024-02-26T07:22:54;5.90;99.90
12700;DHT22;6414;49.570;6.060;2024-02-26T07:25:41;5.90;99.90
12700;DHT22;6414;49.570;6.060;2024-02-26T07:28:27;5.90;99.90
12700;DHT22;6414;49.570;6.060;2024-02-26T07:31:12;5.90;99.90
12700;DHT22;6414;49.570;6.060;2024-02-26T07:33:58;6.00;99.90
12700;DHT22;6414;49.570;6.060;2024-02-26T07:36:44;6.00;99.90
12700;DHT22;6414;49.570;6.060;2024-02-26T07:39:30;6.00;99.90
12700;DHT22;6414;49.570;6.060;2024-02-26T07:42:17;6.00;99.90
12700;DHT22;6414;49.570;6.060;2024-02-26T07:45:03;6.00;99.90
12700;DHT22;6414;49.570;6.060;2024-02-26T07:47:48;6.00;99.90
12700;DHT22;6414;49.570;6.060;2024-02-26T07:50:34;6.00;99.90
12700;DHT22;6414;49.570;6.060;2024-02-26T07:53:20;6.00;99.90
12700;DHT22;6414;49.570;6.060;2024-02-26T07:56:06;6.10;99.90
12700;DHT22;6414;49.570;6.060;2024-02-26T07:58:52;6.10;99.90
12700;DHT22;6414;49.570;6.060;2024-02-26T08:01:38;6.10;99.90
12700;DHT22;6414;49.570;6.060;2024-02-26T08:04:24;6.10;99.90
12700;DHT22;6414;49.570;6.060;2024-02-26T08:07:10;6.10;99.90
12700;DHT22;6414;49.570;6.060;2024-02-26T08:09:56;6.20;99.90
12700;DHT22;6414;49.570;6.060;2024-02-26T08:12:42;6.20;99.90
12700;DHT22;6414;49.570;6.060;2024-02-26T08:15:29;6.20;99.90
12700;DHT22;6414;49.570;6.060;2024-02-26T08:18:14;6.30;99.90
12700;DHT22;6414;49.570;6.060;2024-02-26T08:21:00;6.30;99.90
12700;DHT22;6414;49.570;6.060;2024-02-26T08:23:46;6.30;99.90
12700;DHT22;6414;49.570;6.060;2024-02-26T08:26:32;6.30;99.90
12700;DHT22;6414;49.570;6.060;2024-02-26T08:29:18;6.40;99.90
12700;DHT22;6414;49.570;6.060;2024-02-26T08:32:04;6.40;99.90
12700;DHT22;6414;49.570;6.060;2024-02-26T08:34:50;6.40;99.90
12700;DHT22;6414;49.570;6.060;2024-02-26T08:37:36;6.30;99.90
12700;DHT22;6414;49.570;6.060;2024-02-26T08:40:22;6.30;99.90
12700;DHT22;6414;49.570;6.060;2024-02-26T08:43:08;6.30;99.90
12700;DHT22;6414;49.570;6.060;2024-02-26T08:45:54;6.30;99.90
12700;DHT22;6414;49.570;6.060;2024-02-26T08:48:40;6.30;99.90
12700;DHT22;6414;49.570;6.060;2024-02-26T08:51:27;6.20;99.90
12700;DHT22;6414;49.570;6.060;2024-02-26T08:54:13;6.20;99.90
12700;DHT22;6414;49.570;6.060;2024-02-26T08:56:59;6.30;99.90
12700;DHT22;6414;49.570;6.060;2024-02-26T08:59:45;6.30;99.90
12700;DHT22;6414;49.570;6.060;2024-02-26T09:02:31;6.30;99.90
12700;DHT22;6414;49.570;6.060;2024-02-26T09:05:17;6.30;99.90
12700;DHT22;6414;49.570;6.060;2024-02-26T09:08:03;6.40;99.90
12700;DHT22;6414;49.570;6.060;2024-02-26T09:10:49;6.50;99.90
12700;DHT22;6414;49.570;6.060;2024-02-26T09:13:35;6.50;99.90
12700;DHT22;6414;49.570;6.060;2024-02-26T09:16:22;6.80;99.90
12700;DHT22;6414;49.570;6.060;2024-02-26T09:19:08;6.90;99.90
12700;DHT22;6414;49.570;6.060;2024-02-26T09:21:54;6.80;99.90
12700;DHT22;6414;49.570;6.060;2024-02-26T09:24:40;6.80;99.90
12700;DHT22;6414;49.570;6.060;2024-02-26T09:27:27;6.90;99.90
12700;DHT22;6414;49.570;6.060;2024-02-26T09:30:13;6.80;99.90
12700;DHT22;6414;49.570;6.060;2024-02-26T09:33:00;7.10;99.90
12700;DHT22;6414;49.570;6.060;2024-02-26T09:35:46;7.10;99.90
12700;DHT22;6414;49.570;6.060;2024-02-26T09:38:32;7.20;99.90
12700;DHT22;6414;49.570;6.060;2024-02-26T09:41:18;7.20;99.90
12700;DHT22;6414;49.570;6.060;2024-02-26T09:44:04;7.30;99.90
12700;DHT22;6414;49.570;6.060;2024-02-26T09:46:51;7.30;99.90
12700;DHT22;6414;49.570;6.060;2024-02-26T09:49:37;7.40;99.90
12700;DHT22;6414;49.570;6.060;2024-02-26T09:52:23;7.40;99.90
12700;DHT22;6414;49.570;6.060;2024-02-26T09:55:09;7.50;99.90
12700;DHT22;6414;49.570;6.060;2024-02-26T09:57:55;7.40;99.90
12700;DHT22;6414;49.570;6.060;2024-02-26T10:00:42;7.50;99.90
12700;DHT22;6414;49.570;6.060;2024-02-26T10:03:34;7.60;99.90
12700;DHT22;6414;49.570;6.060;2024-02-26T10:06:17;7.50;99.90
12700;DHT22;6414;49.570;6.060;2024-02-26T10:09:03;7.60;99.90
12700;DHT22;6414;49.570;6.060;2024-02-26T10:11:50;7.70;99.90
12700;DHT22;6414;49.570;6.060;2024-02-26T10:14:35;7.70;99.90
12700;DHT22;6414;49.570;6.060;2024-02-26T10:17:21;7.70;99.90
12700;DHT22;6414;49.570;6.060;2024-02-26T10:20:13;7.60;99.90
12700;DHT22;6414;49.570;6.060;2024-02-26T10:23:05;7.80;99.90
12700;DHT22;6414;49.570;6.060;2024-02-26T10:25:56;7.70;99.90
12700;DHT22;6414;49.570;6.060;2024-02-26T10:28:43;7.80;99.90
12700;DHT22;6414;49.570;6.060;2024-02-26T10:31:27;7.90;99.90
12700;DHT22;6414;49.570;6.060;2024-02-26T10:34:16;8.10;99.90
12700;DHT22;6414;49.570;6.060;2024-02-26T10:37:02;8.00;99.90
12700;DHT22;6414;49.570;6.060;2024-02-26T10:39:48;7.90;99.90
12700;DHT22;6414;49.570;6.060;2024-02-26T10:42:34;8.00;99.90
12700;DHT22;6414;49.570;6.060;2024-02-26T10:45:20;7.90;99.90
12700;DHT22;6414;49.570;6.060;2024-02-26T10:48:07;8.10;99.90
12700;DHT22;6414;49.570;6.060;2024-02-26T10:50:51;8.30;99.90
12700;DHT22;6414;49.570;6.060;2024-02-26T10:53:36;8.40;99.90
12700;DHT22;6414;49.570;6.060;2024-02-26T10:56:24;8.60;99.90
12700;DHT22;6414;49.570;6.060;2024-02-26T10:59:08;8.50;99.90
12700;DHT22;6414;49.570;6.060;2024-02-26T11:01:54;8.50;99.90
12700;DHT22;6414;49.570;6.060;2024-02-26T11:04:40;8.40;99.90
12700;DHT22;6414;49.570;6.060;2024-02-26T11:07:26;8.30;99.90
12700;DHT22;6414;49.570;6.060;2024-02-26T11:10:12;8.20;99.90
12700;DHT22;6414;49.570;6.060;2024-02-26T11:12:59;8.10;99.90
12700;DHT22;6414;49.570;6.060;2024-02-26T11:15:44;7.90;99.90
12700;DHT22;6414;49.570;6.060;2024-02-26T11:18:29;8.00;99.90
12700;DHT22;6414;49.570;6.060;2024-02-26T11:21:18;7.90;99.90
12700;DHT22;6414;49.570;6.060;2024-02-26T11:24:06;7.80;99.90
12700;DHT22;6414;49.570;6.060;2024-02-26T11:26:55;7.90;99.90
12700;DHT22;6414;49.570;6.060;2024-02-26T11:29:52;7.90;99.90
12700;DHT22;6414;49.570;6.060;2024-02-26T11:32:29;7.90;99.90
12700;DHT22;6414;49.570;6.060;2024-02-26T11:35:14;8.00;99.90
12700;DHT22;6414;49.570;6.060;2024-02-26T11:38:00;8.10;99.90
12700;DHT22;6414;49.570;6.060;2024-02-26T11:40:46;8.30;99.90
12700;DHT22;6414;49.570;6.060;2024-02-26T11:44:00;8.40;99.90
12700;DHT22;6414;49.570;6.060;2024-02-26T11:46:45;8.40;99.90
12700;DHT22;6414;49.570;6.060;2024-02-26T11:49:31;8.50;99.90
12700;DHT22;6414;49.570;6.060;2024-02-26T11:52:16;8.30;99.90
12700;DHT22;6414;49.570;6.060;2024-02-26T11:55:02;8.40;99.90
12700;DHT22;6414;49.570;6.060;2024-02-26T11:57:48;8.60;99.90
12700;DHT22;6414;49.570;6.060;2024-02-26T12:00:34;8.80;99.90
12700;DHT22;6414;49.570;6.060;2024-02-26T12:03:20;8.80;99.90
12700;DHT22;6414;49.570;6.060;2024-02-26T12:06:06;8.80;99.90
12700;DHT22;6414;49.570;6.060;2024-02-26T12:08:52;8.80;99.90
12700;DHT22;6414;49.570;6.060;2024-02-26T12:11:39;8.80;99.90
12700;DHT22;6414;49.570;6.060;2024-02-26T12:14:27;8.80;99.90
12700;DHT22;6414;49.570;6.060;2024-02-26T12:17:20;8.70;99.90
12700;DHT22;6414;49.570;6.060;2024-02-26T12:20:08;8.60;99.90
12700;DHT22;6414;49.570;6.060;2024-02-26T12:22:53;8.70;99.90
12700;DHT22;6414;49.570;6.060;2024-02-26T12:25:39;8.90;99.90
12700;DHT22;6414;49.570;6.060;2024-02-26T12:28:29;8.80;99.90
12700;DHT22;6414;49.570;6.060;2024-02-26T12:31:15;8.80;99.90
12700;DHT22;6414;49.570;6.060;2024-02-26T12:34:01;8.70;99.90
12700;DHT22;6414;49.570;6.060;2024-02-26T12:36:46;8.70;99.90
12700;DHT22;6414;49.570;6.060;2024-02-26T12:39:32;8.80;99.90
12700;DHT22;6414;49.570;6.060;2024-02-26T12:42:18;8.80;99.90
12700;DHT22;6414;49.570;6.060;2024-02-26T12:45:04;8.70;99.90
12700;DHT22;6414;49.570;6.060;2024-02-26T12:47:49;8.80;99.90
12700;DHT22;6414;49.570;6.060;2024-02-26T12:50:35;8.90;99.90
12700;DHT22;6414;49.570;6.060;2024-02-26T12:53:20;8.90;99.90
12700;DHT22;6414;49.570;6.060;2024-02-26T12:56:07;8.80;99.90
12700;DHT22;6414;49.570;6.060;2024-02-26T12:58:52;9.00;99.90
12700;DHT22;6414;49.570;6.060;2024-02-26T13:01:37;9.10;99.90
12700;DHT22;6414;49.570;6.060;2024-02-26T13:04:23;9.00;99.90
12700;DHT22;6414;49.570;6.060;2024-02-26T13:07:08;9.10;99.90
12700;DHT22;6414;49.570;6.060;2024-02-26T13:09:54;9.10;99.90
12700;DHT22;6414;49.570;6.060;2024-02-26T13:12:44;9.20;99.90
12700;DHT22;6414;49.570;6.060;2024-02-26T13:15:29;9.30;99.90
12700;DHT22;6414;49.570;6.060;2024-02-26T13:18:15;9.20;99.90
12700;DHT22;6414;49.570;6.060;2024-02-26T13:21:11;9.40;99.90
12700;DHT22;6414;49.570;6.060;2024-02-26T13:23:56;9.50;99.90
12700;DHT22;6414;49.570;6.060;2024-02-26T13:26:42;9.50;99.90
12700;DHT22;6414;49.570;6.060;2024-02-26T13:29:28;9.50;99.90
12700;DHT22;6414;49.570;6.060;2024-02-26T13:32:13;9.70;99.90
12700;DHT22;6414;49.570;6.060;2024-02-26T13:35:11;9.80;99.90
12700;DHT22;6414;49.570;6.060;2024-02-26T13:37:57;9.70;99.90
12700;DHT22;6414;49.570;6.060;2024-02-26T13:40:43;9.80;99.90
12700;DHT22;6414;49.570;6.060;2024-02-26T13:43:29;9.80;99.90
12700;DHT22;6414;49.570;6.060;2024-02-26T13:46:15;9.80;99.90
12700;DHT22;6414;49.570;6.060;2024-02-26T13:49:01;9.90;99.90
12700;DHT22;6414;49.570;6.060;2024-02-26T13:51:47;9.90;99.90
12700;DHT22;6414;49.570;6.060;2024-02-26T13:54:33;9.90;99.90
12700;DHT22;6414;49.570;6.060;2024-02-26T13:57:19;9.90;99.90
12700;DHT22;6414;49.570;6.060;2024-02-26T14:00:05;9.80;99.90
12700;DHT22;6414;49.570;6.060;2024-02-26T14:02:51;9.80;99.90
12700;DHT22;6414;49.570;6.060;2024-02-26T14:05:37;9.80;99.90
12700;DHT22;6414;49.570;6.060;2024-02-26T14:08:23;9.90;99.90
12700;DHT22;6414;49.570;6.060;2024-02-26T14:11:09;9.90;99.90
12700;DHT22;6414;49.570;6.060;2024-02-26T14:13:55;9.90;99.90
12700;DHT22;6414;49.570;6.060;2024-02-26T14:16:41;9.90;99.90
12700;DHT22;6414;49.570;6.060;2024-02-26T14:19:27;9.90;99.90
12700;DHT22;6414;49.570;6.060;2024-02-26T14:22:14;9.90;99.90
12700;DHT22;6414;49.570;6.060;2024-02-26T14:24:59;9.90;99.90
12700;DHT22;6414;49.570;6.060;2024-02-26T14:27:49;9.90;99.90
12700;DHT22;6414;49.570;6.060;2024-02-26T14:30:31;9.90;99.90
12700;DHT22;6414;49.570;6.060;2024-02-26T14:33:18;9.80;99.90
12700;DHT22;6414;49.570;6.060;2024-02-26T14:36:04;9.90;99.90
12700;DHT22;6414;49.570;6.060;2024-02-26T14:38:51;9.90;99.90
12700;DHT22;6414;49.570;6.060;2024-02-26T14:41:36;9.90;99.90
12700;DHT22;6414;49.570;6.060;2024-02-26T14:44:21;9.80;99.90
12700;DHT22;6414;49.570;6.060;2024-02-26T14:47:07;9.90;99.90
12700;DHT22;6414;49.570;6.060;2024-02-26T14:49:54;9.90;99.90
12700;DHT22;6414;49.570;6.060;2024-02-26T14:52:39;9.90;99.90
12700;DHT22;6414;49.570;6.060;2024-02-26T14:55:25;9.90;99.90
12700;DHT22;6414;49.570;6.060;2024-02-26T14:58:11;9.90;99.90
12700;DHT22;6414;49.570;6.060;2024-02-26T15:00:56;9.90;99.90
12700;DHT22;6414;49.570;6.060;2024-02-26T15:03:42;9.90;99.90
12700;DHT22;6414;49.570;6.060;2024-02-26T15:06:29;9.60;99.90
12700;DHT22;6414;49.570;6.060;2024-02-26T15:09:14;9.60;99.90
12700;DHT22;6414;49.570;6.060;2024-02-26T15:12:00;9.40;99.90
12700;DHT22;6414;49.570;6.060;2024-02-26T15:14:46;9.30;99.90
12700;DHT22;6414;49.570;6.060;2024-02-26T15:17:32;9.10;99.90
12700;DHT22;6414;49.570;6.060;2024-02-26T15:20:18;9.00;99.90
12700;DHT22;6414;49.570;6.060;2024-02-26T15:23:04;8.90;99.90
12700;DHT22;6414;49.570;6.060;2024-02-26T15:25:50;8.90;99.90
12700;DHT22;6414;49.570;6.060;2024-02-26T15:28:37;8.90;99.90
12700;DHT22;6414;49.570;6.060;2024-02-26T15:31:23;8.90;99.90
12700;DHT22;6414;49.570;6.060;2024-02-26T15:34:09;8.90;99.90
12700;DHT22;6414;49.570;6.060;2024-02-26T15:36:56;8.70;99.90
12700;DHT22;6414;49.570;6.060;2024-02-26T15:39:41;8.70;99.90
12700;DHT22;6414;49.570;6.060;2024-02-26T15:42:27;8.70;99.90
12700;DHT22;6414;49.570;6.060;2024-02-26T15:45:14;8.70;99.90
12700;DHT22;6414;49.570;6.060;2024-02-26T15:48:00;8.50;99.90
12700;DHT22;6414;49.570;6.060;2024-02-26T15:50:47;8.50;99.90
12700;DHT22;6414;49.570;6.060;2024-02-26T15:53:33;8.50;99.90
12700;DHT22;6414;49.570;6.060;2024-02-26T15:56:19;8.40;99.90
12700;DHT22;6414;49.570;6.060;2024-02-26T15:59:05;8.40;99.90
12700;DHT22;6414;49.570;6.060;2024-02-26T16:01:51;8.40;99.90
12700;DHT22;6414;49.570;6.060;2024-02-26T16:04:40;8.50;99.90
12700;DHT22;6414;49.570;6.060;2024-02-26T16:07:36;8.50;99.90
12700;DHT22;6414;49.570;6.060;2024-02-26T16:10:18;8.50;99.90
12700;DHT22;6414;49.570;6.060;2024-02-26T16:13:04;8.40;99.90
12700;DHT22;6414;49.570;6.060;2024-02-26T16:15:52;8.50;99.90
12700;DHT22;6414;49.570;6.060;2024-02-26T16:18:37;8.40;99.90
12700;DHT22;6414;49.570;6.060;2024-02-26T16:21:23;8.40;99.90
12700;DHT22;6414;49.570;6.060;2024-02-26T16:24:09;8.30;99.90
12700;DHT22;6414;49.570;6.060;2024-02-26T16:26:54;8.30;99.90
12700;DHT22;6414;49.570;6.060;2024-02-26T16:29:40;8.20;99.90
12700;DHT22;6414;49.570;6.060;2024-02-26T16:32:27;8.30;99.90
12700;DHT22;6414;49.570;6.060;2024-02-26T16:35:13;8.20;99.90
12700;DHT22;6414;49.570;6.060;2024-02-26T16:37:59;8.20;99.90
12700;DHT22;6414;49.570;6.060;2024-02-26T16:40:45;8.20;99.90
12700;DHT22;6414;49.570;6.060;2024-02-26T16:43:31;8.20;99.90
12700;DHT22;6414;49.570;6.060;2024-02-26T16:46:18;8.10;99.90
12700;DHT22;6414;49.570;6.060;2024-02-26T16:49:04;8.10;99.90
12700;DHT22;6414;49.570;6.060;2024-02-26T16:51:50;8.20;99.90
12700;DHT22;6414;49.570;6.060;2024-02-26T16:54:36;8.10;99.90
12700;DHT22;6414;49.570;6.060;2024-02-26T16:57:22;8.00;99.90
12700;DHT22;6414;49.570;6.060;2024-02-26T17:00:08;8.00;99.90
12700;DHT22;6414;49.570;6.060;2024-02-26T17:02:54;8.00;99.90
12700;DHT22;6414;49.570;6.060;2024-02-26T17:05:40;8.00;99.90
12700;DHT22;6414;49.570;6.060;2024-02-26T17:08:26;8.00;99.90
12700;DHT22;6414;49.570;6.060;2024-02-26T17:11:11;7.90;99.90
12700;DHT22;6414;49.570;6.060;2024-02-26T17:13:57;7.90;99.90
12700;DHT22;6414;49.570;6.060;2024-02-26T17:16:42;7.90;99.90
12700;DHT22;6414;49.570;6.060;2024-02-26T17:19:28;7.90;99.90
12700;DHT22;6414;49.570;6.060;2024-02-26T17:22:14;7.90;99.90
12700;DHT22;6414;49.570;6.060;2024-02-26T17:25:00;7.80;99.90
12700;DHT22;6414;49.570;6.060;2024-02-26T17:27:46;7.80;99.90
12700;DHT22;6414;49.570;6.060;2024-02-26T17:30:32;7.80;99.90
12700;DHT22;6414;49.570;6.060;2024-02-26T17:33:18;7.80;99.90
12700;DHT22;6414;49.570;6.060;2024-02-26T17:36:04;7.80;99.90
12700;DHT22;6414;49.570;6.060;2024-02-26T17:38:50;7.80;99.90
12700;DHT22;6414;49.570;6.060;2024-02-26T17:41:36;7.70;99.90
12700;DHT22;6414;49.570;6.060;2024-02-26T17:44:21;7.70;99.90
12700;DHT22;6414;49.570;6.060;2024-02-26T17:47:07;7.80;99.90
12700;DHT22;6414;49.570;6.060;2024-02-26T17:49:53;7.70;99.90
12700;DHT22;6414;49.570;6.060;2024-02-26T17:52:39;7.60;99.90
12700;DHT22;6414;49.570;6.060;2024-02-26T17:55:25;7.70;99.90
12700;DHT22;6414;49.570;6.060;2024-02-26T17:58:11;7.60;99.90
12700;DHT22;6414;49.570;6.060;2024-02-26T18:00:57;7.50;99.90
12700;DHT22;6414;49.570;6.060;2024-02-26T18:03:43;7.50;99.90
12700;DHT22;6414;49.570;6.060;2024-02-26T18:06:28;7.40;99.90